M/T Vemaoil Xi — 9HWD7 — position and weather

sailwx.info

Track history (hours):
 
Tides and Currents Weather Stations Pressure Air Temp Water Temp Dewpoint Dewpoint Depression Visibility Wind Speed Wind Dir Waves Ship Positions

M/T Vemaoil Xi

Last reported at 2018-Jan-21 11:30 UTC. Time now 2018-Jan-21 12:30 UTC.
Position N 35°49' E 014°36'.

Length 105 m; draft 4.8 m.

Type: Tanker. MMSI: 215631000.

Date/timePositionNaut miles runAvg speedWind from/ knotsBaromVisibWave heightAir tempDewpointWater temp
2018-Jan-21 11:30N 35°49' E 014°36'0 0.0
2018-Jan-21 10:57N 35°49' E 014°36'0 0.0
2018-Jan-21 10:24N 35°49' E 014°36'0 0.0
2018-Jan-21 10:01N 35°49' E 014°36'0 0.2
2018-Jan-21 09:01N 35°49' E 014°36'0 3.4
2018-Jan-21 08:56N 35°49' E 014°36'1 2.6
2018-Jan-21 08:30N 35°50' E 014°36'0 0.2
2018-Jan-21 06:55N 35°50' E 014°36'0 0.0
2018-Jan-21 06:25N 35°50' E 014°36'0 0.0
2018-Jan-21 05:56N 35°50' E 014°36'0 0.0
2018-Jan-21 04:55N 35°50' E 014°36'0 0.1
2018-Jan-21 04:29N 35°50' E 014°36'0 0.0
2018-Jan-21 03:57N 35°50' E 014°36'0 0.0
2018-Jan-21 02:01N 35°50' E 014°36'0 0.0
2018-Jan-21 01:54N 35°50' E 014°36'0 0.0
2018-Jan-21 01:30N 35°50' E 014°36'0 0.1
2018-Jan-21 01:00N 35°50' E 014°36'0 0.0
2018-Jan-21 00:30N 35°50' E 014°36'0 0.0
2018-Jan-21 00:00N 35°50' E 014°36'0 0.0
2018-Jan-20 23:29N 35°50' E 014°36'0 0.0
2018-Jan-20 23:00N 35°50' E 014°36'0 0.0
2018-Jan-20 22:28N 35°50' E 014°36'0 0.0
2018-Jan-20 21:58N 35°50' E 014°36'0 0.0
2018-Jan-20 21:28N 35°50' E 014°36'0 0.0
2018-Jan-20 21:01N 35°50' E 014°36'0 0.0
2018-Jan-20 20:30N 35°50' E 014°36'0 0.0
2018-Jan-20 19:59N 35°50' E 014°36'0 0.0
2018-Jan-20 19:27N 35°50' E 014°36'0 0.0
2018-Jan-20 19:00N 35°50' E 014°36'0 0.0
2018-Jan-20 18:27N 35°50' E 014°36'0 0.0
2018-Jan-20 17:59N 35°50' E 014°36'0 0.0
2018-Jan-20 17:30N 35°50' E 014°36'0 0.1
2018-Jan-20 16:50N 35°50' E 014°36'0 0.0
2018-Jan-20 16:30N 35°50' E 014°36'0 0.0
2018-Jan-20 16:00N 35°50' E 014°36'0 0.0
2018-Jan-20 15:28N 35°50' E 014°36'0 0.0
2018-Jan-20 14:52N 35°50' E 014°36'0 0.1
2018-Jan-20 14:30N 35°50' E 014°36'0 0.1
2018-Jan-20 14:01N 35°50' E 014°36'0 0.0
2018-Jan-20 13:30N 35°50' E 014°36'0 0.1
2018-Jan-20 12:55N 35°50' E 014°36'0 0.1
2018-Jan-20 12:29N 35°50' E 014°36'0 0.0
2018-Jan-20 11:58N 35°50' E 014°36'0 0.0
2018-Jan-20 10:35N 35°50' E 014°36'0 0.1
2018-Jan-20 10:30N 35°50' E 014°36'0 0.0
2018-Jan-20 09:24N 35°50' E 014°36'0 0.0
2018-Jan-20 08:58N 35°50' E 014°36'0 0.0
2018-Jan-20 08:29N 35°50' E 014°36'0 0.0
2018-Jan-20 07:57N 35°50' E 014°36'0 0.0
2018-Jan-20 07:27N 35°50' E 014°36'0 0.0
2018-Jan-20 06:04N 35°50' E 014°36'0 0.1
2018-Jan-20 05:58N 35°50' E 014°36'0 0.0
2018-Jan-20 05:23N 35°50' E 014°36'0 0.0
2018-Jan-20 04:57N 35°50' E 014°36'0 0.1
2018-Jan-20 04:29N 35°50' E 014°36'1 2.5
2018-Jan-20 04:00N 35°50' E 014°37'4 6.9
2018-Jan-20 03:28N 35°51' E 014°42'4 0.9
2018-Jan-19 23:19N 35°53' E 014°45'0 0.0
2018-Jan-19 22:13N 35°53' E 014°45'0 0.1
2018-Jan-19 22:00N 35°53' E 014°45'1 1.4
2018-Jan-19 21:30N 35°53' E 014°44'1 0.9
2018-Jan-19 20:41N 35°54' E 014°45'0 0.1
2018-Jan-19 20:26N 35°54' E 014°45'0 0.1
2018-Jan-19 19:57N 35°54' E 014°45'0 0.0
2018-Jan-19 19:30N 35°54' E 014°45'0 0.0
2018-Jan-19 18:56N 35°54' E 014°45'0 0.0
2018-Jan-19 18:08N 35°54' E 014°45'0 0.0
2018-Jan-19 15:11N 35°54' E 014°45'0 0.0
2018-Jan-19 14:55N 35°54' E 014°45'0 0.0
2018-Jan-19 14:20N 35°54' E 014°45'2 0.3
2018-Jan-19 07:59N 35°53' E 014°46'0 0.0
2018-Jan-19 06:13N 35°53' E 014°46'1 0.3
2018-Jan-19 04:06N 35°53' E 014°47'0 0.0
2018-Jan-19 02:48N 35°53' E 014°47'0 0.0
2018-Jan-19 02:27N 35°53' E 014°47'0 0.0
2018-Jan-19 01:48N 35°53' E 014°47'0 0.0
2018-Jan-19 00:06N 35°53' E 014°47'0 0.1
2018-Jan-18 23:53N 35°53' E 014°47'0 0.0
2018-Jan-18 23:18N 35°53' E 014°47'0 0.3
2018-Jan-18 21:49N 35°52' E 014°47'2 6.5
2018-Jan-18 21:27N 35°53' E 014°44'4 7.4
2018-Jan-18 20:58N 35°55' E 014°40'3 7.1
2018-Jan-18 20:29N 35°54' E 014°36'3 0.3
2018-Jan-18 08:44N 35°54' E 014°32'2 6.9
2018-Jan-18 08:30N 35°55' E 014°33'2 4.6
2018-Jan-18 08:00N 35°57' E 014°35'1 1.8
2018-Jan-18 07:30N 35°56' E 014°35'1 1.6
2018-Jan-18 07:00N 35°56' E 014°35'1 1.9
2018-Jan-18 06:30N 35°55' E 014°36'0 0.9
2018-Jan-18 06:00N 35°54' E 014°35'1 2.1
2018-Jan-18 05:30N 35°53' E 014°35'2 4.4
2018-Jan-18 04:59N 35°51' E 014°36'  
2018-Jan-12 14:29N 35°52' E 014°46'0 0.0
2018-Jan-12 13:57N 35°52' E 014°46'0 0.0
2018-Jan-12 09:39N 35°52' E 014°46'0 2.9
2018-Jan-12 09:30N 35°53' E 014°46'4 7.3
2018-Jan-12 08:59N 35°51' E 014°42'5 1.0
2018-Jan-12 03:53N 35°49' E 014°36'0 0.1
2018-Jan-12 03:19N 35°49' E 014°36'0 0.0
2018-Jan-12 00:50N 35°49' E 014°36'0 0.2
2018-Jan-12 00:30N 35°49' E 014°36'0 0.1
2018-Jan-11 23:48N 35°49' E 014°36'0 0.0
2018-Jan-11 22:38N 35°49' E 014°36'0 0.1
2018-Jan-11 22:10N 35°49' E 014°36'0 0.0
2018-Jan-11 21:46N 35°49' E 014°36'0 0.0
2018-Jan-11 21:26N 35°49' E 014°36'0 0.0
2018-Jan-11 20:56N 35°49' E 014°36'1 0.4
2018-Jan-11 18:30N 35°49' E 014°37'1 0.2
2018-Jan-11 12:31N 35°51' E 014°36'0 0.9
2018-Jan-11 12:30N 35°51' E 014°36'  
Track history (hours):
 
Tides and Currents Weather Stations Pressure Air Temp Water Temp Dewpoint Dewpoint Depression Visibility Wind Speed Wind Dir Waves Ship Positions

M/T Vemaoil Xi

Last reported at 2018-Jan-21 11:30 UTC. Time now 2018-Jan-21 12:30 UTC.
Position N 35°49' E 014°36'.

Length 105 m; draft 4.8 m.

Type: Tanker. MMSI: 215631000.

Date/timePositionNaut miles runAvg speedWind from/ knotsBaromVisibWave heightAir tempDewpointWater temp
2018-Jan-21 11:30N 35°49' E 014°36'0 0.0
2018-Jan-21 10:57N 35°49' E 014°36'0 0.0
2018-Jan-21 10:24N 35°49' E 014°36'0 0.0
2018-Jan-21 10:01N 35°49' E 014°36'0 0.2
2018-Jan-21 09:01N 35°49' E 014°36'0 3.4
2018-Jan-21 08:56N 35°49' E 014°36'1 2.6
2018-Jan-21 08:30N 35°50' E 014°36'0 0.2
2018-Jan-21 06:55N 35°50' E 014°36'0 0.0
2018-Jan-21 06:25N 35°50' E 014°36'0 0.0
2018-Jan-21 05:56N 35°50' E 014°36'0 0.0
2018-Jan-21 04:55N 35°50' E 014°36'0 0.1
2018-Jan-21 04:29N 35°50' E 014°36'0 0.0
2018-Jan-21 03:57N 35°50' E 014°36'0 0.0
2018-Jan-21 02:01N 35°50' E 014°36'0 0.0
2018-Jan-21 01:54N 35°50' E 014°36'0 0.0
2018-Jan-21 01:30N 35°50' E 014°36'0 0.1
2018-Jan-21 01:00N 35°50' E 014°36'0 0.0
2018-Jan-21 00:30N 35°50' E 014°36'0 0.0
2018-Jan-21 00:00N 35°50' E 014°36'0 0.0
2018-Jan-20 23:29N 35°50' E 014°36'0 0.0
2018-Jan-20 23:00N 35°50' E 014°36'0 0.0
2018-Jan-20 22:28N 35°50' E 014°36'0 0.0
2018-Jan-20 21:58N 35°50' E 014°36'0 0.0
2018-Jan-20 21:28N 35°50' E 014°36'0 0.0
2018-Jan-20 21:01N 35°50' E 014°36'0 0.0
2018-Jan-20 20:30N 35°50' E 014°36'0 0.0
2018-Jan-20 19:59N 35°50' E 014°36'0 0.0
2018-Jan-20 19:27N 35°50' E 014°36'0 0.0
2018-Jan-20 19:00N 35°50' E 014°36'0 0.0
2018-Jan-20 18:27N 35°50' E 014°36'0 0.0
2018-Jan-20 17:59N 35°50' E 014°36'0 0.0
2018-Jan-20 17:30N 35°50' E 014°36'0 0.1
2018-Jan-20 16:50N 35°50' E 014°36'0 0.0
2018-Jan-20 16:30N 35°50' E 014°36'0 0.0
2018-Jan-20 16:00N 35°50' E 014°36'0 0.0
2018-Jan-20 15:28N 35°50' E 014°36'0 0.0
2018-Jan-20 14:52N 35°50' E 014°36'0 0.1
2018-Jan-20 14:30N 35°50' E 014°36'0 0.1
2018-Jan-20 14:01N 35°50' E 014°36'0 0.0
2018-Jan-20 13:30N 35°50' E 014°36'0 0.1
2018-Jan-20 12:55N 35°50' E 014°36'0 0.1
2018-Jan-20 12:29N 35°50' E 014°36'0 0.0
2018-Jan-20 11:58N 35°50' E 014°36'0 0.0
2018-Jan-20 10:35N 35°50' E 014°36'0 0.1
2018-Jan-20 10:30N 35°50' E 014°36'0 0.0
2018-Jan-20 09:24N 35°50' E 014°36'0 0.0
2018-Jan-20 08:58N 35°50' E 014°36'0 0.0
2018-Jan-20 08:29N 35°50' E 014°36'0 0.0
2018-Jan-20 07:57N 35°50' E 014°36'0 0.0
2018-Jan-20 07:27N 35°50' E 014°36'0 0.0
2018-Jan-20 06:04N 35°50' E 014°36'0 0.1
2018-Jan-20 05:58N 35°50' E 014°36'0 0.0
2018-Jan-20 05:23N 35°50' E 014°36'0 0.0
2018-Jan-20 04:57N 35°50' E 014°36'0 0.1
2018-Jan-20 04:29N 35°50' E 014°36'1 2.5
2018-Jan-20 04:00N 35°50' E 014°37'4 6.9
2018-Jan-20 03:28N 35°51' E 014°42'4 0.9
2018-Jan-19 23:19N 35°53' E 014°45'0 0.0
2018-Jan-19 22:13N 35°53' E 014°45'0 0.1
2018-Jan-19 22:00N 35°53' E 014°45'1 1.4
2018-Jan-19 21:30N 35°53' E 014°44'1 0.9
2018-Jan-19 20:41N 35°54' E 014°45'0 0.1
2018-Jan-19 20:26N 35°54' E 014°45'0 0.1
2018-Jan-19 19:57N 35°54' E 014°45'0 0.0
2018-Jan-19 19:30N 35°54' E 014°45'0 0.0
2018-Jan-19 18:56N 35°54' E 014°45'0 0.0
2018-Jan-19 18:08N 35°54' E 014°45'0 0.0
2018-Jan-19 15:11N 35°54' E 014°45'0 0.0
2018-Jan-19 14:55N 35°54' E 014°45'0 0.0
2018-Jan-19 14:20N 35°54' E 014°45'2 0.3
2018-Jan-19 07:59N 35°53' E 014°46'0 0.0
2018-Jan-19 06:13N 35°53' E 014°46'1 0.3
2018-Jan-19 04:06N 35°53' E 014°47'0 0.0
2018-Jan-19 02:48N 35°53' E 014°47'0 0.0
2018-Jan-19 02:27N 35°53' E 014°47'0 0.0
2018-Jan-19 01:48N 35°53' E 014°47'0 0.0
2018-Jan-19 00:06N 35°53' E 014°47'0 0.1
2018-Jan-18 23:53N 35°53' E 014°47'0 0.0
2018-Jan-18 23:18N 35°53' E 014°47'0 0.3
2018-Jan-18 21:49N 35°52' E 014°47'2 6.5
2018-Jan-18 21:27N 35°53' E 014°44'4 7.4
2018-Jan-18 20:58N 35°55' E 014°40'3 7.1
2018-Jan-18 20:29N 35°54' E 014°36'3 0.3
2018-Jan-18 08:44N 35°54' E 014°32'2 6.9
2018-Jan-18 08:30N 35°55' E 014°33'2 4.6
2018-Jan-18 08:00N 35°57' E 014°35'1 1.8
2018-Jan-18 07:30N 35°56' E 014°35'1 1.6
2018-Jan-18 07:00N 35°56' E 014°35'1 1.9
2018-Jan-18 06:30N 35°55' E 014°36'0 0.9
2018-Jan-18 06:00N 35°54' E 014°35'1 2.1
2018-Jan-18 05:30N 35°53' E 014°35'2 4.4
2018-Jan-18 04:59N 35°51' E 014°36'  
2018-Jan-12 14:29N 35°52' E 014°46'0 0.0
2018-Jan-12 13:57N 35°52' E 014°46'0 0.0
2018-Jan-12 09:39N 35°52' E 014°46'0 2.9
2018-Jan-12 09:30N 35°53' E 014°46'4 7.3
2018-Jan-12 08:59N 35°51' E 014°42'5 1.0
2018-Jan-12 03:53N 35°49' E 014°36'0 0.1
2018-Jan-12 03:19N 35°49' E 014°36'0 0.0
2018-Jan-12 00:50N 35°49' E 014°36'0 0.2
2018-Jan-12 00:30N 35°49' E 014°36'0 0.1
2018-Jan-11 23:48N 35°49' E 014°36'0 0.0
2018-Jan-11 22:38N 35°49' E 014°36'0 0.1
2018-Jan-11 22:10N 35°49' E 014°36'0 0.0
2018-Jan-11 21:46N 35°49' E 014°36'0 0.0
2018-Jan-11 21:26N 35°49' E 014°36'0 0.0
2018-Jan-11 20:56N 35°49' E 014°36'1 0.4
2018-Jan-11 18:30N 35°49' E 014°37'1 0.2
2018-Jan-11 12:31N 35°51' E 014°36'0 0.9
2018-Jan-11 12:30N 35°51' E 014°36'  

Dump ship's entire track history